JBU1817 TTCP-TTPP
Flight info
| Callsign | JBU1817 |
|---|---|
| Flight time | 0h 22m |
| Altitude | 10000 |
| Route | NAPKO DCT LEXOR DCT TALUS |
| Aircraft | A20N/M-SDE2E3FGHIRWXY/LB1 |
Departure
| Time | 2026-04-23 20:16 |
|---|---|
| Airport | A.N.R. Robinson International Airport (TTCP) |
Arrival
| Time | 2026-04-23 20:38 |
|---|---|
| Airport | Piarco International Airport (TTPP) |
| Time | Latitude | Longitude | Altitude | Speed | Heading |
|---|---|---|---|---|---|
| 2026-04-23 20:04 | 11.15198 | -60.84063 | 38 ft | 0 kts | 5° |
| 2026-04-23 20:12 | 11.15182 | -60.84064 | 40 ft | 5 kts | 5° |
| 2026-04-23 20:12 | 11.15153 | -60.84075 | 39 ft | 4 kts | 19° |
| 2026-04-23 20:13 | 11.15130 | -60.84068 | 40 ft | 2 kts | 293° |
| 2026-04-23 20:13 | 11.15124 | -60.84050 | 36 ft | 0 kts | 270° |
| 2026-04-23 20:14 | 11.15124 | -60.84067 | 40 ft | 5 kts | 269° |
| 2026-04-23 20:14 | 11.15120 | -60.84112 | 40 ft | 7 kts | 245° |
| 2026-04-23 20:15 | 11.15087 | -60.84133 | 40 ft | 5 kts | 207° |
| 2026-04-23 20:15 | 11.15044 | -60.84137 | 40 ft | 7 kts | 168° |
| 2026-04-23 20:15 | 11.15036 | -60.84113 | 40 ft | 0 kts | 97° |
| 2026-04-23 20:15 | 11.15030 | -60.84062 | 41 ft | 37 kts | 97° |
| 2026-04-23 20:16 | 11.14997 | -60.83500 | 44 ft | 117 kts | 94° |
| 2026-04-23 20:16 | 11.14913 | -60.82458 | 96 ft | 172 kts | 92° |
| 2026-04-23 20:16 | 11.14823 | -60.81240 | 827 ft | 176 kts | 99° |
| 2026-04-23 20:16 | 11.14435 | -60.79972 | 1447 ft | 202 kts | 111° |
| 2026-04-23 20:17 | 11.13964 | -60.78476 | 1771 ft | 228 kts | 91° |
| 2026-04-23 20:17 | 11.14289 | -60.76988 | 3203 ft | 208 kts | 59° |
| 2026-04-23 20:17 | 11.15365 | -60.75872 | 3729 ft | 243 kts | 29° |
| 2026-04-23 20:17 | 11.17111 | -60.75440 | 4185 ft | 276 kts | 358° |
| 2026-04-23 20:18 | 11.18961 | -60.76069 | 4725 ft | 287 kts | 323° |
| 2026-04-23 20:18 | 11.20144 | -60.77641 | 5053 ft | 277 kts | 297° |
| 2026-04-23 20:18 | 11.21300 | -60.79223 | 5485 ft | 296 kts | 320° |
| 2026-04-23 20:18 | 11.23002 | -60.80550 | 5966 ft | 320 kts | 316° |
| 2026-04-23 20:19 | 11.24281 | -60.82390 | 6427 ft | 311 kts | 293° |
| 2026-04-23 20:19 | 11.24688 | -60.84417 | 6841 ft | 276 kts | 267° |
| 2026-04-23 20:19 | 11.24193 | -60.86235 | 7286 ft | 272 kts | 239° |
| 2026-04-23 20:19 | 11.22964 | -60.87690 | 7748 ft | 272 kts | 221° |
| 2026-04-23 20:20 | 11.21507 | -60.88934 | 8207 ft | 273 kts | 219° |
| 2026-04-23 20:20 | 11.20082 | -60.90226 | 8664 ft | 280 kts | 223° |
| 2026-04-23 20:20 | 11.18680 | -60.91675 | 8768 ft | 287 kts | 227° |
| 2026-04-23 20:20 | 11.17363 | -60.93193 | 8868 ft | 286 kts | 229° |
| 2026-04-23 20:21 | 11.16082 | -60.94751 | 8966 ft | 287 kts | 230° |
| 2026-04-23 20:21 | 11.14830 | -60.96305 | 9001 ft | 287 kts | 230° |
| 2026-04-23 20:21 | 11.13565 | -60.97882 | 9002 ft | 288 kts | 230° |
| 2026-04-23 20:21 | 11.12234 | -60.99537 | 9006 ft | 320 kts | 230° |
| 2026-04-23 20:22 | 11.10745 | -61.01383 | 9004 ft | 354 kts | 230° |
| 2026-04-23 20:22 | 11.09143 | -61.03367 | 9005 ft | 366 kts | 230° |
| 2026-04-23 20:22 | 11.07521 | -61.05375 | 9003 ft | 367 kts | 230° |
| 2026-04-23 20:22 | 11.05903 | -61.07377 | 9000 ft | 366 kts | 230° |
| 2026-04-23 20:23 | 11.04280 | -61.09384 | 9002 ft | 367 kts | 230° |
| 2026-04-23 20:23 | 11.02662 | -61.11385 | 9002 ft | 364 kts | 230° |
| 2026-04-23 20:23 | 11.01091 | -61.13327 | 9000 ft | 345 kts | 230° |
| 2026-04-23 20:23 | 10.99615 | -61.15155 | 8998 ft | 325 kts | 230° |
| 2026-04-23 20:24 | 10.98236 | -61.16860 | 8998 ft | 306 kts | 230° |
| 2026-04-23 20:24 | 10.96919 | -61.18488 | 8999 ft | 288 kts | 230° |
| 2026-04-23 20:24 | 10.95662 | -61.20042 | 9000 ft | 288 kts | 230° |
| 2026-04-23 20:24 | 10.94370 | -61.21638 | 8853 ft | 292 kts | 230° |
| 2026-04-23 20:25 | 10.93089 | -61.23221 | 8603 ft | 287 kts | 230° |
| 2026-04-23 20:25 | 10.91823 | -61.24783 | 8355 ft | 287 kts | 230° |
| 2026-04-23 20:25 | 10.90552 | -61.26353 | 8112 ft | 286 kts | 230° |
| 2026-04-23 20:25 | 10.89290 | -61.27911 | 7903 ft | 285 kts | 230° |
| 2026-04-23 20:26 | 10.88027 | -61.29470 | 7716 ft | 285 kts | 230° |
| 2026-04-23 20:26 | 10.86763 | -61.31030 | 7522 ft | 285 kts | 230° |
| 2026-04-23 20:26 | 10.85504 | -61.32585 | 7318 ft | 285 kts | 230° |
| 2026-04-23 20:26 | 10.84245 | -61.34139 | 7029 ft | 283 kts | 230° |
| 2026-04-23 20:27 | 10.82993 | -61.35683 | 6748 ft | 283 kts | 230° |
| 2026-04-23 20:27 | 10.81742 | -61.37226 | 6467 ft | 282 kts | 230° |
| 2026-04-23 20:27 | 10.80496 | -61.38762 | 6179 ft | 281 kts | 230° |
| 2026-04-23 20:27 | 10.79270 | -61.40275 | 5891 ft | 280 kts | 230° |
| 2026-04-23 20:28 | 10.78033 | -61.41799 | 5594 ft | 280 kts | 230° |
| 2026-04-23 20:28 | 10.76793 | -61.43329 | 5305 ft | 279 kts | 230° |
| 2026-04-23 20:28 | 10.75560 | -61.44849 | 5019 ft | 278 kts | 230° |
| 2026-04-23 20:28 | 10.74326 | -61.46370 | 4733 ft | 278 kts | 230° |
| 2026-04-23 20:29 | 10.73097 | -61.47884 | 4427 ft | 278 kts | 230° |
| 2026-04-23 20:29 | 10.71865 | -61.49404 | 4070 ft | 278 kts | 229° |
| 2026-04-23 20:29 | 10.70636 | -61.50906 | 3720 ft | 275 kts | 227° |
| 2026-04-23 20:29 | 10.69114 | -61.52028 | 3395 ft | 269 kts | 199° |
| 2026-04-23 20:30 | 10.67323 | -61.52308 | 3074 ft | 263 kts | 173° |
| 2026-04-23 20:30 | 10.64115 | -61.50819 | 2491 ft | 248 kts | 135° |
| 2026-04-23 20:30 | 10.62924 | -61.49634 | 2383 ft | 229 kts | 143° |
| 2026-04-23 20:31 | 10.61504 | -61.49107 | 2329 ft | 213 kts | 177° |
| 2026-04-23 20:31 | 10.60063 | -61.49480 | 2340 ft | 222 kts | 210° |
| 2026-04-23 20:31 | 10.59026 | -61.50624 | 2348 ft | 225 kts | 244° |
| 2026-04-23 20:31 | 10.58751 | -61.52169 | 2351 ft | 225 kts | 274° |
| 2026-04-23 20:32 | 10.58964 | -61.53749 | 2342 ft | 227 kts | 281° |
| 2026-04-23 20:32 | 10.59216 | -61.55330 | 2350 ft | 224 kts | 278° |
| 2026-04-23 20:32 | 10.59572 | -61.56857 | 2346 ft | 223 kts | 300° |
| 2026-04-23 20:32 | 10.60632 | -61.57980 | 2341 ft | 221 kts | 334° |
| 2026-04-23 20:33 | 10.62091 | -61.58303 | 2345 ft | 214 kts | 9° |
| 2026-04-23 20:33 | 10.63444 | -61.57732 | 2340 ft | 211 kts | 44° |
| 2026-04-23 20:33 | 10.64203 | -61.56497 | 2343 ft | 208 kts | 79° |
| 2026-04-23 20:33 | 10.64104 | -61.55071 | 2344 ft | 207 kts | 113° |
| 2026-04-23 20:34 | 10.63296 | -61.53845 | 2341 ft | 212 kts | 130° |
| 2026-04-23 20:34 | 10.62293 | -61.52755 | 2343 ft | 211 kts | 133° |
| 2026-04-23 20:34 | 10.61262 | -61.51697 | 2340 ft | 209 kts | 132° |
| 2026-04-23 20:34 | 10.60378 | -61.50533 | 2338 ft | 208 kts | 118° |
| 2026-04-23 20:35 | 10.59818 | -61.49184 | 2339 ft | 204 kts | 105° |
| 2026-04-23 20:35 | 10.59561 | -61.47805 | 2345 ft | 196 kts | 96° |
| 2026-04-23 20:35 | 10.59469 | -61.46398 | 2337 ft | 198 kts | 91° |
| 2026-04-23 20:35 | 10.59457 | -61.44994 | 2337 ft | 199 kts | 89° |
| 2026-04-23 20:36 | 10.59461 | -61.43662 | 2120 ft | 179 kts | 90° |
| 2026-04-23 20:36 | 10.59421 | -61.42417 | 1836 ft | 173 kts | 93° |
| 2026-04-23 20:36 | 10.59414 | -61.41261 | 1604 ft | 154 kts | 83° |
| 2026-04-23 20:36 | 10.59566 | -61.40225 | 1304 ft | 143 kts | 85° |
| 2026-04-23 20:37 | 10.59560 | -61.39251 | 1051 ft | 131 kts | 93° |
| 2026-04-23 20:37 | 10.59513 | -61.38353 | 810 ft | 127 kts | 90° |
| 2026-04-23 20:37 | 10.59527 | -61.37448 | 559 ft | 133 kts | 89° |
| 2026-04-23 20:37 | 10.59525 | -61.36468 | 362 ft | 142 kts | 87° |
| 2026-04-23 20:38 | 10.59522 | -61.35472 | 132 ft | 138 kts | 85° |
| 2026-04-23 20:38 | 10.59536 | -61.34539 | 17 ft | 123 kts | 87° |
| 2026-04-23 20:38 | 10.59552 | -61.33825 | 16 ft | 66 kts | 92° |
| 2026-04-23 20:38 | 10.59550 | -61.33615 | 16 ft | 8 kts | 75° |
| 2026-04-23 20:39 | 10.59586 | -61.33517 | 16 ft | 19 kts | 68° |
| 2026-04-23 20:39 | 10.59694 | -61.33462 | 17 ft | 16 kts | 335° |
| 2026-04-23 20:39 | 10.59713 | -61.33514 | 17 ft | 7 kts | 262° |
| 2026-04-23 20:39 | 10.59709 | -61.33582 | 17 ft | 13 kts | 279° |
| 2026-04-23 20:40 | 10.59731 | -61.33677 | 17 ft | 15 kts | 283° |
| 2026-04-23 20:40 | 10.59807 | -61.33745 | 17 ft | 15 kts | 341° |
| 2026-04-23 20:40 | 10.59890 | -61.33739 | 17 ft | 7 kts | 359° |
| 2026-04-23 20:40 | 10.59927 | -61.33778 | 17 ft | 9 kts | 306° |
| 2026-04-23 20:41 | 10.59968 | -61.33830 | 16 ft | 0 kts | 308° |